sensor_id;sensor_type;location;lat;lon;timestamp;P1;durP1;ratioP1;P2;durP2;ratioP2
69623;SDS011;56843;52.020;5.670;2022-10-22T00:00:14;8.30;;;1.77;;
69623;SDS011;56843;52.020;5.670;2022-10-22T00:01:46;10.55;;;2.85;;
69623;SDS011;56843;52.020;5.670;2022-10-22T00:03:16;8.33;;;3.07;;
69623;SDS011;56843;52.020;5.670;2022-10-22T00:04:49;9.15;;;2.80;;
69623;SDS011;56843;52.020;5.670;2022-10-22T00:06:20;14.33;;;3.40;;
69623;SDS011;56843;52.020;5.670;2022-10-22T00:07:50;9.43;;;2.65;;
69623;SDS011;56843;52.020;5.670;2022-10-22T00:09:21;12.87;;;3.30;;
69623;SDS011;56843;52.020;5.670;2022-10-22T00:10:51;15.90;;;3.20;;
69623;SDS011;56843;52.020;5.670;2022-10-22T00:12:22;18.03;;;2.33;;
69623;SDS011;56843;52.020;5.670;2022-10-22T00:13:53;17.17;;;3.53;;
69623;SDS011;56843;52.020;5.670;2022-10-22T00:15:24;11.27;;;3.28;;
69623;SDS011;56843;52.020;5.670;2022-10-22T00:16:55;7.80;;;3.30;;
69623;SDS011;56843;52.020;5.670;2022-10-22T00:18:25;13.70;;;2.75;;
69623;SDS011;56843;52.020;5.670;2022-10-22T00:19:56;9.10;;;2.93;;
69623;SDS011;56843;52.020;5.670;2022-10-22T00:21:26;13.60;;;3.10;;
69623;SDS011;56843;52.020;5.670;2022-10-22T00:22:58;10.90;;;3.03;;
69623;SDS011;56843;52.020;5.670;2022-10-22T00:24:28;14.98;;;3.55;;
69623;SDS011;56843;52.020;5.670;2022-10-22T00:25:59;9.57;;;3.60;;
69623;SDS011;56843;52.020;5.670;2022-10-22T00:27:29;8.73;;;3.77;;
69623;SDS011;56843;52.020;5.670;2022-10-22T00:29:00;9.45;;;3.63;;
69623;SDS011;56843;52.020;5.670;2022-10-22T00:30:31;8.90;;;2.97;;
69623;SDS011;56843;52.020;5.670;2022-10-22T00:32:02;22.03;;;3.33;;
69623;SDS011;56843;52.020;5.670;2022-10-22T00:33:33;17.67;;;3.25;;
69623;SDS011;56843;52.020;5.670;2022-10-22T00:35:04;8.73;;;3.30;;
69623;SDS011;56843;52.020;5.670;2022-10-22T00:36:34;10.35;;;3.70;;
69623;SDS011;56843;52.020;5.670;2022-10-22T00:38:05;11.33;;;3.57;;
69623;SDS011;56843;52.020;5.670;2022-10-22T00:39:35;21.83;;;3.83;;
69623;SDS011;56843;52.020;5.670;2022-10-22T00:41:06;6.97;;;2.97;;
69623;SDS011;56843;52.020;5.670;2022-10-22T00:42:37;9.00;;;3.45;;
69623;SDS011;56843;52.020;5.670;2022-10-22T00:44:57;13.07;;;4.40;;
69623;SDS011;56843;52.020;5.670;2022-10-22T00:46:17;9.48;;;3.42;;
69623;SDS011;56843;52.020;5.670;2022-10-22T00:49:39;16.25;;;4.22;;
69623;SDS011;56843;52.020;5.670;2022-10-22T00:51:09;20.73;;;4.43;;
69623;SDS011;56843;52.020;5.670;2022-10-22T00:52:40;12.75;;;4.10;;
69623;SDS011;56843;52.020;5.670;2022-10-22T00:54:11;10.13;;;3.63;;
69623;SDS011;56843;52.020;5.670;2022-10-22T00:55:42;9.18;;;3.47;;
69623;SDS011;56843;52.020;5.670;2022-10-22T00:57:17;10.40;;;3.53;;
69623;SDS011;56843;52.020;5.670;2022-10-22T00:58:52;9.95;;;3.50;;
69623;SDS011;56843;52.020;5.670;2022-10-22T01:02:19;10.03;;;3.63;;
69623;SDS011;56843;52.020;5.670;2022-10-22T01:03:50;11.82;;;3.42;;
69623;SDS011;56843;52.020;5.670;2022-10-22T01:05:21;13.90;;;3.83;;
69623;SDS011;56843;52.020;5.670;2022-10-22T01:06:52;11.05;;;2.88;;
69623;SDS011;56843;52.020;5.670;2022-10-22T01:13:48;10.85;;;3.75;;
69623;SDS011;56843;52.020;5.670;2022-10-22T01:17:06;15.10;;;4.53;;
69623;SDS011;56843;52.020;5.670;2022-10-22T01:19:01;10.27;;;3.80;;
69623;SDS011;56843;52.020;5.670;2022-10-22T01:21:03;8.75;;;3.78;;
69623;SDS011;56843;52.020;5.670;2022-10-22T01:22:40;12.68;;;3.90;;
69623;SDS011;56843;52.020;5.670;2022-10-22T01:26:25;10.20;;;3.63;;
69623;SDS011;56843;52.020;5.670;2022-10-22T01:28:25;13.32;;;4.40;;
69623;SDS011;56843;52.020;5.670;2022-10-22T01:30:09;12.55;;;3.78;;
69623;SDS011;56843;52.020;5.670;2022-10-22T01:31:47;10.23;;;4.17;;
69623;SDS011;56843;52.020;5.670;2022-10-22T01:33:23;9.33;;;3.47;;
69623;SDS011;56843;52.020;5.670;2022-10-22T01:35:02;10.00;;;3.25;;
69623;SDS011;56843;52.020;5.670;2022-10-22T01:36:36;11.15;;;3.25;;
69623;SDS011;56843;52.020;5.670;2022-10-22T01:38:09;8.27;;;3.67;;
69623;SDS011;56843;52.020;5.670;2022-10-22T01:39:44;14.43;;;3.92;;
69623;SDS011;56843;52.020;5.670;2022-10-22T01:41:17;12.02;;;3.35;;
69623;SDS011;56843;52.020;5.670;2022-10-22T01:43:00;11.30;;;4.55;;
69623;SDS011;56843;52.020;5.670;2022-10-22T01:44:34;10.80;;;4.20;;
69623;SDS011;56843;52.020;5.670;2022-10-22T01:46:06;9.90;;;3.53;;
69623;SDS011;56843;52.020;5.670;2022-10-22T01:49:16;11.57;;;3.55;;
69623;SDS011;56843;52.020;5.670;2022-10-22T01:53:08;12.02;;;2.97;;
69623;SDS011;56843;52.020;5.670;2022-10-22T01:58:19;9.53;;;3.33;;
69623;SDS011;56843;52.020;5.670;2022-10-22T02:00:07;11.30;;;3.80;;
69623;SDS011;56843;52.020;5.670;2022-10-22T02:03:30;12.43;;;4.10;;
69623;SDS011;56843;52.020;5.670;2022-10-22T02:05:29;9.27;;;3.92;;
69623;SDS011;56843;52.020;5.670;2022-10-22T02:07:06;13.80;;;4.40;;
69623;SDS011;56843;52.020;5.670;2022-10-22T02:08:40;10.23;;;3.85;;
69623;SDS011;56843;52.020;5.670;2022-10-22T02:10:12;17.35;;;4.10;;
69623;SDS011;56843;52.020;5.670;2022-10-22T02:11:44;9.18;;;3.90;;
69623;SDS011;56843;52.020;5.670;2022-10-22T02:13:16;15.80;;;5.47;;
69623;SDS011;56843;52.020;5.670;2022-10-22T02:14:51;15.30;;;4.80;;
69623;SDS011;56843;52.020;5.670;2022-10-22T02:16:24;19.67;;;4.40;;
69623;SDS011;56843;52.020;5.670;2022-10-22T02:17:59;10.38;;;4.10;;
69623;SDS011;56843;52.020;5.670;2022-10-22T02:20:16;7.55;;;3.75;;
69623;SDS011;56843;52.020;5.670;2022-10-22T02:21:25;15.90;;;4.50;;
69623;SDS011;56843;52.020;5.670;2022-10-22T02:22:56;14.77;;;5.00;;
69623;SDS011;56843;52.020;5.670;2022-10-22T02:24:28;13.10;;;3.70;;
69623;SDS011;56843;52.020;5.670;2022-10-22T02:26:01;11.35;;;4.13;;
69623;SDS011;56843;52.020;5.670;2022-10-22T02:31:37;16.93;;;4.70;;
69623;SDS011;56843;52.020;5.670;2022-10-22T02:33:12;22.67;;;4.90;;
69623;SDS011;56843;52.020;5.670;2022-10-22T02:34:47;14.77;;;4.40;;
69623;SDS011;56843;52.020;5.670;2022-10-22T02:36:20;10.32;;;4.15;;
69623;SDS011;56843;52.020;5.670;2022-10-22T02:37:52;14.73;;;5.32;;
69623;SDS011;56843;52.020;5.670;2022-10-22T02:39:25;22.88;;;4.95;;
69623;SDS011;56843;52.020;5.670;2022-10-22T02:40:57;15.02;;;5.05;;
69623;SDS011;56843;52.020;5.670;2022-10-22T02:42:28;11.90;;;4.75;;
69623;SDS011;56843;52.020;5.670;2022-10-22T02:43:59;11.07;;;5.03;;
69623;SDS011;56843;52.020;5.670;2022-10-22T02:45:31;21.73;;;4.47;;
69623;SDS011;56843;52.020;5.670;2022-10-22T02:47:03;11.93;;;4.28;;
69623;SDS011;56843;52.020;5.670;2022-10-22T02:48:34;18.40;;;4.63;;
69623;SDS011;56843;52.020;5.670;2022-10-22T02:50:05;13.30;;;4.13;;
69623;SDS011;56843;52.020;5.670;2022-10-22T02:51:36;13.47;;;4.90;;
69623;SDS011;56843;52.020;5.670;2022-10-22T02:53:06;12.45;;;4.50;;
69623;SDS011;56843;52.020;5.670;2022-10-22T02:54:37;15.80;;;5.10;;
69623;SDS011;56843;52.020;5.670;2022-10-22T02:56:08;13.73;;;4.85;;
69623;SDS011;56843;52.020;5.670;2022-10-22T02:57:39;18.50;;;4.30;;
69623;SDS011;56843;52.020;5.670;2022-10-22T02:59:09;11.07;;;4.50;;
69623;SDS011;56843;52.020;5.670;2022-10-22T03:00:40;10.13;;;4.33;;
69623;SDS011;56843;52.020;5.670;2022-10-22T03:02:11;12.32;;;5.35;;
69623;SDS011;56843;52.020;5.670;2022-10-22T03:03:41;12.90;;;4.67;;
69623;SDS011;56843;52.020;5.670;2022-10-22T03:05:12;10.55;;;4.32;;
69623;SDS011;56843;52.020;5.670;2022-10-22T03:06:43;11.13;;;4.95;;
69623;SDS011;56843;52.020;5.670;2022-10-22T03:08:13;13.20;;;5.03;;
69623;SDS011;56843;52.020;5.670;2022-10-22T03:09:44;19.80;;;5.60;;
69623;SDS011;56843;52.020;5.670;2022-10-22T03:11:15;14.80;;;5.20;;
69623;SDS011;56843;52.020;5.670;2022-10-22T03:12:46;9.83;;;4.20;;
69623;SDS011;56843;52.020;5.670;2022-10-22T03:14:17;12.45;;;4.70;;
69623;SDS011;56843;52.020;5.670;2022-10-22T03:15:48;10.90;;;5.22;;
69623;SDS011;56843;52.020;5.670;2022-10-22T03:17:19;12.97;;;4.57;;
69623;SDS011;56843;52.020;5.670;2022-10-22T03:18:50;17.73;;;5.30;;
69623;SDS011;56843;52.020;5.670;2022-10-22T03:20:20;13.17;;;4.90;;
69623;SDS011;56843;52.020;5.670;2022-10-22T03:23:27;28.77;;;5.40;;
69623;SDS011;56843;52.020;5.670;2022-10-22T03:24:59;12.25;;;4.57;;
69623;SDS011;56843;52.020;5.670;2022-10-22T03:26:37;14.90;;;5.50;;
69623;SDS011;56843;52.020;5.670;2022-10-22T03:28:10;16.67;;;5.60;;
69623;SDS011;56843;52.020;5.670;2022-10-22T03:29:44;15.57;;;5.45;;
69623;SDS011;56843;52.020;5.670;2022-10-22T03:31:16;17.15;;;4.75;;
69623;SDS011;56843;52.020;5.670;2022-10-22T03:32:46;11.55;;;4.60;;
69623;SDS011;56843;52.020;5.670;2022-10-22T03:34:17;16.73;;;5.97;;
69623;SDS011;56843;52.020;5.670;2022-10-22T03:35:47;10.93;;;4.37;;
69623;SDS011;56843;52.020;5.670;2022-10-22T03:37:18;18.27;;;4.28;;
69623;SDS011;56843;52.020;5.670;2022-10-22T03:38:49;9.85;;;4.70;;
69623;SDS011;56843;52.020;5.670;2022-10-22T03:40:19;7.50;;;3.40;;
69623;SDS011;56843;52.020;5.670;2022-10-22T03:41:50;10.25;;;4.40;;
69623;SDS011;56843;52.020;5.670;2022-10-22T03:43:22;13.17;;;5.07;;
69623;SDS011;56843;52.020;5.670;2022-10-22T03:44:52;17.40;;;4.82;;
69623;SDS011;56843;52.020;5.670;2022-10-22T03:46:23;12.43;;;4.60;;
69623;SDS011;56843;52.020;5.670;2022-10-22T03:47:53;14.00;;;5.43;;
69623;SDS011;56843;52.020;5.670;2022-10-22T03:49:24;16.03;;;5.47;;
69623;SDS011;56843;52.020;5.670;2022-10-22T03:50:54;17.10;;;5.20;;
69623;SDS011;56843;52.020;5.670;2022-10-22T03:52:25;14.35;;;5.50;;
69623;SDS011;56843;52.020;5.670;2022-10-22T03:53:55;11.67;;;5.30;;
69623;SDS011;56843;52.020;5.670;2022-10-22T03:55:26;14.80;;;5.20;;
69623;SDS011;56843;52.020;5.670;2022-10-22T03:56:56;9.35;;;4.32;;
69623;SDS011;56843;52.020;5.670;2022-10-22T03:58:27;9.90;;;4.73;;
69623;SDS011;56843;52.020;5.670;2022-10-22T03:59:57;15.17;;;4.80;;
69623;SDS011;56843;52.020;5.670;2022-10-22T04:01:28;10.75;;;4.78;;
69623;SDS011;56843;52.020;5.670;2022-10-22T04:02:59;18.08;;;5.22;;
69623;SDS011;56843;52.020;5.670;2022-10-22T04:04:30;11.03;;;4.87;;
69623;SDS011;56843;52.020;5.670;2022-10-22T04:06:01;22.20;;;5.45;;
69623;SDS011;56843;52.020;5.670;2022-10-22T04:07:36;15.50;;;5.40;;
69623;SDS011;56843;52.020;5.670;2022-10-22T04:09:07;13.40;;;4.70;;
69623;SDS011;56843;52.020;5.670;2022-10-22T04:10:38;18.43;;;5.27;;
69623;SDS011;56843;52.020;5.670;2022-10-22T04:12:08;11.27;;;4.50;;
69623;SDS011;56843;52.020;5.670;2022-10-22T04:13:39;10.93;;;4.23;;
69623;SDS011;56843;52.020;5.670;2022-10-22T04:15:10;15.98;;;4.57;;
69623;SDS011;56843;52.020;5.670;2022-10-22T04:16:40;11.43;;;4.97;;
69623;SDS011;56843;52.020;5.670;2022-10-22T04:18:11;14.13;;;5.00;;
69623;SDS011;56843;52.020;5.670;2022-10-22T04:19:41;23.10;;;5.80;;
69623;SDS011;56843;52.020;5.670;2022-10-22T04:21:13;12.90;;;4.45;;
69623;SDS011;56843;52.020;5.670;2022-10-22T04:22:45;10.47;;;4.40;;
69623;SDS011;56843;52.020;5.670;2022-10-22T04:24:15;17.53;;;4.87;;
69623;SDS011;56843;52.020;5.670;2022-10-22T04:25:46;12.27;;;4.93;;
69623;SDS011;56843;52.020;5.670;2022-10-22T04:27:16;9.43;;;4.23;;
69623;SDS011;56843;52.020;5.670;2022-10-22T04:28:47;16.10;;;4.93;;
69623;SDS011;56843;52.020;5.670;2022-10-22T04:30:18;13.77;;;4.40;;
69623;SDS011;56843;52.020;5.670;2022-10-22T04:31:49;11.50;;;4.30;;
69623;SDS011;56843;52.020;5.670;2022-10-22T04:33:20;14.60;;;3.97;;
69623;SDS011;56843;52.020;5.670;2022-10-22T04:34:51;11.73;;;4.78;;
69623;SDS011;56843;52.020;5.670;2022-10-22T04:36:21;12.53;;;4.77;;
69623;SDS011;56843;52.020;5.670;2022-10-22T04:37:53;17.55;;;6.07;;
69623;SDS011;56843;52.020;5.670;2022-10-22T04:39:24;25.42;;;5.95;;
69623;SDS011;56843;52.020;5.670;2022-10-22T04:40:55;19.55;;;5.60;;
69623;SDS011;56843;52.020;5.670;2022-10-22T04:42:25;12.63;;;4.30;;
69623;SDS011;56843;52.020;5.670;2022-10-22T04:43:56;10.77;;;4.17;;
69623;SDS011;56843;52.020;5.670;2022-10-22T04:45:27;16.50;;;5.75;;
69623;SDS011;56843;52.020;5.670;2022-10-22T04:46:57;14.25;;;5.57;;
69623;SDS011;56843;52.020;5.670;2022-10-22T04:48:28;12.03;;;5.20;;
69623;SDS011;56843;52.020;5.670;2022-10-22T04:49:59;19.67;;;5.00;;
69623;SDS011;56843;52.020;5.670;2022-10-22T04:51:29;15.23;;;4.97;;
69623;SDS011;56843;52.020;5.670;2022-10-22T04:53:00;13.60;;;5.40;;
69623;SDS011;56843;52.020;5.670;2022-10-22T04:54:31;19.73;;;5.00;;
69623;SDS011;56843;52.020;5.670;2022-10-22T04:56:14;12.07;;;4.70;;
69623;SDS011;56843;52.020;5.670;2022-10-22T04:57:49;17.23;;;4.95;;
69623;SDS011;56843;52.020;5.670;2022-10-22T04:59:20;9.35;;;3.72;;
69623;SDS011;56843;52.020;5.670;2022-10-22T05:00:50;9.93;;;4.10;;
69623;SDS011;56843;52.020;5.670;2022-10-22T05:02:21;11.10;;;3.97;;
69623;SDS011;56843;52.020;5.670;2022-10-22T05:03:52;17.60;;;4.83;;
69623;SDS011;56843;52.020;5.670;2022-10-22T05:05:24;13.67;;;4.93;;
69623;SDS011;56843;52.020;5.670;2022-10-22T05:06:54;13.48;;;3.88;;
69623;SDS011;56843;52.020;5.670;2022-10-22T05:08:25;18.50;;;4.77;;
69623;SDS011;56843;52.020;5.670;2022-10-22T05:09:55;12.77;;;4.40;;
69623;SDS011;56843;52.020;5.670;2022-10-22T05:11:27;13.63;;;4.10;;
69623;SDS011;56843;52.020;5.670;2022-10-22T05:12:59;11.07;;;4.72;;
69623;SDS011;56843;52.020;5.670;2022-10-22T05:14:29;14.33;;;4.80;;
69623;SDS011;56843;52.020;5.670;2022-10-22T05:16:00;13.68;;;4.63;;
69623;SDS011;56843;52.020;5.670;2022-10-22T05:17:33;15.33;;;6.03;;
69623;SDS011;56843;52.020;5.670;2022-10-22T05:19:04;15.73;;;4.80;;
69623;SDS011;56843;52.020;5.670;2022-10-22T05:20:38;10.27;;;4.60;;
69623;SDS011;56843;52.020;5.670;2022-10-22T05:22:09;15.70;;;4.13;;
69623;SDS011;56843;52.020;5.670;2022-10-22T05:23:40;13.13;;;4.55;;
69623;SDS011;56843;52.020;5.670;2022-10-22T05:25:12;10.17;;;4.37;;
69623;SDS011;56843;52.020;5.670;2022-10-22T05:26:42;13.67;;;4.53;;
69623;SDS011;56843;52.020;5.670;2022-10-22T05:28:13;14.70;;;4.37;;
69623;SDS011;56843;52.020;5.670;2022-10-22T05:29:43;17.08;;;4.22;;
69623;SDS011;56843;52.020;5.670;2022-10-22T05:31:14;12.80;;;4.00;;
69623;SDS011;56843;52.020;5.670;2022-10-22T05:32:45;11.70;;;3.75;;
69623;SDS011;56843;52.020;5.670;2022-10-22T05:34:15;18.07;;;4.87;;
69623;SDS011;56843;52.020;5.670;2022-10-22T05:35:46;17.00;;;5.15;;
69623;SDS011;56843;52.020;5.670;2022-10-22T05:37:20;12.80;;;4.40;;
69623;SDS011;56843;52.020;5.670;2022-10-22T05:38:51;14.07;;;4.10;;
69623;SDS011;56843;52.020;5.670;2022-10-22T05:40:21;16.17;;;4.47;;
69623;SDS011;56843;52.020;5.670;2022-10-22T05:41:52;11.02;;;4.38;;
69623;SDS011;56843;52.020;5.670;2022-10-22T05:43:23;22.83;;;4.67;;
69623;SDS011;56843;52.020;5.670;2022-10-22T05:44:53;15.45;;;4.72;;
69623;SDS011;56843;52.020;5.670;2022-10-22T05:46:25;13.53;;;4.30;;
69623;SDS011;56843;52.020;5.670;2022-10-22T05:47:56;17.55;;;4.97;;
69623;SDS011;56843;52.020;5.670;2022-10-22T05:49:27;11.07;;;4.10;;
69623;SDS011;56843;52.020;5.670;2022-10-22T05:51:00;14.60;;;3.87;;
69623;SDS011;56843;52.020;5.670;2022-10-22T05:52:35;11.87;;;4.27;;
69623;SDS011;56843;52.020;5.670;2022-10-22T05:54:06;13.55;;;3.67;;
69623;SDS011;56843;52.020;5.670;2022-10-22T05:55:37;15.52;;;4.68;;
69623;SDS011;56843;52.020;5.670;2022-10-22T05:57:09;16.23;;;4.20;;
69623;SDS011;56843;52.020;5.670;2022-10-22T05:58:40;11.63;;;4.33;;
69623;SDS011;56843;52.020;5.670;2022-10-22T06:00:12;25.13;;;4.18;;
69623;SDS011;56843;52.020;5.670;2022-10-22T06:01:42;13.43;;;4.22;;
69623;SDS011;56843;52.020;5.670;2022-10-22T06:03:13;27.33;;;5.43;;
69623;SDS011;56843;52.020;5.670;2022-10-22T06:04:44;12.83;;;4.03;;
69623;SDS011;56843;52.020;5.670;2022-10-22T06:06:19;24.42;;;4.90;;
69623;SDS011;56843;52.020;5.670;2022-10-22T06:07:53;13.90;;;3.78;;
69623;SDS011;56843;52.020;5.670;2022-10-22T06:11:00;22.13;;;4.47;;
69623;SDS011;56843;52.020;5.670;2022-10-22T06:12:30;12.33;;;4.77;;
69623;SDS011;56843;52.020;5.670;2022-10-22T06:14:01;11.63;;;3.87;;
69623;SDS011;56843;52.020;5.670;2022-10-22T06:15:33;12.90;;;3.97;;
69623;SDS011;56843;52.020;5.670;2022-10-22T06:17:04;12.60;;;4.10;;
69623;SDS011;56843;52.020;5.670;2022-10-22T06:18:34;15.47;;;4.47;;
69623;SDS011;56843;52.020;5.670;2022-10-22T06:20:05;18.30;;;5.17;;
69623;SDS011;56843;52.020;5.670;2022-10-22T06:21:36;17.20;;;4.53;;
69623;SDS011;56843;52.020;5.670;2022-10-22T06:23:07;15.27;;;4.27;;
69623;SDS011;56843;52.020;5.670;2022-10-22T06:24:37;13.95;;;4.00;;
69623;SDS011;56843;52.020;5.670;2022-10-22T06:26:08;24.93;;;4.20;;
69623;SDS011;56843;52.020;5.670;2022-10-22T06:27:40;15.90;;;4.25;;
69623;SDS011;56843;52.020;5.670;2022-10-22T06:29:10;20.40;;;4.33;;
69623;SDS011;56843;52.020;5.670;2022-10-22T06:30:41;16.48;;;4.40;;
69623;SDS011;56843;52.020;5.670;2022-10-22T06:32:12;11.87;;;4.10;;
69623;SDS011;56843;52.020;5.670;2022-10-22T06:33:43;12.07;;;3.78;;
69623;SDS011;56843;52.020;5.670;2022-10-22T06:35:13;15.67;;;3.70;;
69623;SDS011;56843;52.020;5.670;2022-10-22T06:36:44;11.55;;;3.20;;
69623;SDS011;56843;52.020;5.670;2022-10-22T06:38:15;16.65;;;4.50;;
69623;SDS011;56843;52.020;5.670;2022-10-22T06:39:46;21.30;;;4.73;;
69623;SDS011;56843;52.020;5.670;2022-10-22T06:41:16;15.55;;;3.90;;
69623;SDS011;56843;52.020;5.670;2022-10-22T06:42:47;17.73;;;4.07;;
69623;SDS011;56843;52.020;5.670;2022-10-22T06:44:18;18.90;;;5.13;;
69623;SDS011;56843;52.020;5.670;2022-10-22T06:45:49;15.68;;;3.92;;
69623;SDS011;56843;52.020;5.670;2022-10-22T06:47:19;15.30;;;3.78;;
69623;SDS011;56843;52.020;5.670;2022-10-22T06:48:52;7.00;;;2.90;;
69623;SDS011;56843;52.020;5.670;2022-10-22T06:50:26;16.10;;;3.90;;
69623;SDS011;56843;52.020;5.670;2022-10-22T06:51:56;13.97;;;3.77;;
69623;SDS011;56843;52.020;5.670;2022-10-22T06:53:27;15.73;;;3.93;;
69623;SDS011;56843;52.020;5.670;2022-10-22T06:54:58;12.53;;;3.33;;
69623;SDS011;56843;52.020;5.670;2022-10-22T06:56:29;15.32;;;4.05;;
69623;SDS011;56843;52.020;5.670;2022-10-22T06:57:59;19.10;;;4.03;;
69623;SDS011;56843;52.020;5.670;2022-10-22T06:59:30;21.48;;;4.53;;
69623;SDS011;56843;52.020;5.670;2022-10-22T07:01:01;25.43;;;4.43;;
69623;SDS011;56843;52.020;5.670;2022-10-22T07:02:33;22.45;;;4.40;;
69623;SDS011;56843;52.020;5.670;2022-10-22T07:04:04;10.17;;;3.70;;
69623;SDS011;56843;52.020;5.670;2022-10-22T07:05:35;19.17;;;4.63;;
69623;SDS011;56843;52.020;5.670;2022-10-22T07:07:05;20.20;;;5.10;;
69623;SDS011;56843;52.020;5.670;2022-10-22T07:08:36;18.90;;;5.00;;
69623;SDS011;56843;52.020;5.670;2022-10-22T07:10:08;25.70;;;4.30;;
69623;SDS011;56843;52.020;5.670;2022-10-22T07:11:43;15.97;;;4.83;;
69623;SDS011;56843;52.020;5.670;2022-10-22T07:13:14;15.07;;;4.97;;
69623;SDS011;56843;52.020;5.670;2022-10-22T07:14:45;13.68;;;3.30;;
69623;SDS011;56843;52.020;5.670;2022-10-22T07:16:16;11.97;;;4.30;;
69623;SDS011;56843;52.020;5.670;2022-10-22T07:17:47;19.13;;;3.67;;
69623;SDS011;56843;52.020;5.670;2022-10-22T07:19:17;14.33;;;3.80;;
69623;SDS011;56843;52.020;5.670;2022-10-22T07:20:48;26.20;;;5.13;;
69623;SDS011;56843;52.020;5.670;2022-10-22T07:22:18;14.87;;;4.70;;
69623;SDS011;56843;52.020;5.670;2022-10-22T07:23:49;17.52;;;4.63;;
69623;SDS011;56843;52.020;5.670;2022-10-22T07:25:19;19.23;;;4.10;;
69623;SDS011;56843;52.020;5.670;2022-10-22T07:26:50;13.07;;;4.17;;
69623;SDS011;56843;52.020;5.670;2022-10-22T07:28:20;19.20;;;4.87;;
69623;SDS011;56843;52.020;5.670;2022-10-22T07:29:51;16.47;;;4.43;;
69623;SDS011;56843;52.020;5.670;2022-10-22T07:31:22;24.20;;;4.07;;
69623;SDS011;56843;52.020;5.670;2022-10-22T07:32:52;20.17;;;4.38;;
69623;SDS011;56843;52.020;5.670;2022-10-22T07:34:23;17.63;;;4.27;;
69623;SDS011;56843;52.020;5.670;2022-10-22T07:35:57;18.73;;;3.75;;
69623;SDS011;56843;52.020;5.670;2022-10-22T07:37:28;15.30;;;3.70;;
69623;SDS011;56843;52.020;5.670;2022-10-22T07:38:59;16.05;;;3.83;;
69623;SDS011;56843;52.020;5.670;2022-10-22T07:40:30;14.10;;;3.67;;
69623;SDS011;56843;52.020;5.670;2022-10-22T07:42:01;13.33;;;4.13;;
69623;SDS011;56843;52.020;5.670;2022-10-22T07:43:31;22.37;;;4.07;;
69623;SDS011;56843;52.020;5.670;2022-10-22T07:45:02;10.10;;;4.05;;
69623;SDS011;56843;52.020;5.670;2022-10-22T07:46:32;18.90;;;3.83;;
69623;SDS011;56843;52.020;5.670;2022-10-22T07:48:04;16.40;;;4.63;;
69623;SDS011;56843;52.020;5.670;2022-10-22T07:49:35;14.23;;;3.70;;
69623;SDS011;56843;52.020;5.670;2022-10-22T07:51:05;21.67;;;4.73;;
69623;SDS011;56843;52.020;5.670;2022-10-22T07:52:37;17.13;;;3.95;;
69623;SDS011;56843;52.020;5.670;2022-10-22T07:54:07;13.18;;;2.90;;
69623;SDS011;56843;52.020;5.670;2022-10-22T07:55:38;18.87;;;4.13;;
69623;SDS011;56843;52.020;5.670;2022-10-22T07:57:08;16.23;;;3.93;;
69623;SDS011;56843;52.020;5.670;2022-10-22T07:58:39;10.57;;;2.97;;
69623;SDS011;56843;52.020;5.670;2022-10-22T08:00:10;14.57;;;2.90;;
69623;SDS011;56843;52.020;5.670;2022-10-22T08:01:44;21.33;;;4.07;;
69623;SDS011;56843;52.020;5.670;2022-10-22T08:03:16;12.90;;;3.38;;
69623;SDS011;56843;52.020;5.670;2022-10-22T08:04:47;11.73;;;3.35;;
69623;SDS011;56843;52.020;5.670;2022-10-22T08:06:17;17.50;;;3.58;;
69623;SDS011;56843;52.020;5.670;2022-10-22T08:07:48;19.93;;;3.70;;
69623;SDS011;56843;52.020;5.670;2022-10-22T08:09:18;13.60;;;2.97;;
69623;SDS011;56843;52.020;5.670;2022-10-22T08:10:50;9.93;;;3.15;;
69623;SDS011;56843;52.020;5.670;2022-10-22T08:12:22;13.85;;;3.25;;
69623;SDS011;56843;52.020;5.670;2022-10-22T08:13:52;11.17;;;3.07;;
69623;SDS011;56843;52.020;5.670;2022-10-22T08:15:23;16.33;;;2.97;;
69623;SDS011;56843;52.020;5.670;2022-10-22T08:17:00;20.58;;;3.95;;
69623;SDS011;56843;52.020;5.670;2022-10-22T08:18:31;24.13;;;3.43;;
69623;SDS011;56843;52.020;5.670;2022-10-22T08:20:05;22.90;;;3.70;;
69623;SDS011;56843;52.020;5.670;2022-10-22T08:21:36;10.20;;;2.30;;
69623;SDS011;56843;52.020;5.670;2022-10-22T08:23:06;10.83;;;3.23;;
69623;SDS011;56843;52.020;5.670;2022-10-22T08:24:37;23.43;;;3.97;;
69623;SDS011;56843;52.020;5.670;2022-10-22T08:26:13;14.43;;;3.00;;
69623;SDS011;56843;52.020;5.670;2022-10-22T08:27:44;14.23;;;2.88;;
69623;SDS011;56843;52.020;5.670;2022-10-22T08:29:15;14.23;;;3.78;;
69623;SDS011;56843;52.020;5.670;2022-10-22T08:30:46;18.42;;;3.30;;
69623;SDS011;56843;52.020;5.670;2022-10-22T08:32:17;13.40;;;2.97;;
69623;SDS011;56843;52.020;5.670;2022-10-22T08:33:48;14.40;;;3.43;;
69623;SDS011;56843;52.020;5.670;2022-10-22T08:35:19;18.13;;;3.05;;
69623;SDS011;56843;52.020;5.670;2022-10-22T08:36:49;14.97;;;3.00;;
69623;SDS011;56843;52.020;5.670;2022-10-22T08:38:20;11.68;;;2.60;;
69623;SDS011;56843;52.020;5.670;2022-10-22T08:39:53;12.63;;;2.20;;
69623;SDS011;56843;52.020;5.670;2022-10-22T08:41:29;7.80;;;1.95;;
69623;SDS011;56843;52.020;5.670;2022-10-22T08:45:26;10.70;;;2.47;;
69623;SDS011;56843;52.020;5.670;2022-10-22T08:50:40;7.07;;;1.93;;
69623;SDS011;56843;52.020;5.670;2022-10-22T08:52:15;11.07;;;2.60;;
69623;SDS011;56843;52.020;5.670;2022-10-22T08:55:18;21.50;;;2.42;;
69623;SDS011;56843;52.020;5.670;2022-10-22T08:58:37;14.10;;;2.65;;
69623;SDS011;56843;52.020;5.670;2022-10-22T09:00:15;11.18;;;2.00;;
69623;SDS011;56843;52.020;5.670;2022-10-22T09:01:51;9.20;;;2.50;;
69623;SDS011;56843;52.020;5.670;2022-10-22T09:07:04;15.30;;;2.38;;
69623;SDS011;56843;52.020;5.670;2022-10-22T09:08:35;9.90;;;2.30;;
69623;SDS011;56843;52.020;5.670;2022-10-22T09:10:07;10.80;;;2.78;;
69623;SDS011;56843;52.020;5.670;2022-10-22T09:11:42;10.85;;;2.28;;
69623;SDS011;56843;52.020;5.670;2022-10-22T09:13:15;19.95;;;2.50;;
69623;SDS011;56843;52.020;5.670;2022-10-22T09:14:49;13.80;;;2.20;;
69623;SDS011;56843;52.020;5.670;2022-10-22T09:16:24;11.87;;;2.57;;
69623;SDS011;56843;52.020;5.670;2022-10-22T09:18:21;11.18;;;2.55;;
69623;SDS011;56843;52.020;5.670;2022-10-22T09:20:12;6.28;;;1.80;;
69623;SDS011;56843;52.020;5.670;2022-10-22T09:25:28;10.07;;;2.42;;
69623;SDS011;56843;52.020;5.670;2022-10-22T09:27:01;8.93;;;1.77;;
69623;SDS011;56843;52.020;5.670;2022-10-22T09:28:39;15.95;;;2.35;;
69623;SDS011;56843;52.020;5.670;2022-10-22T09:30:17;11.33;;;2.60;;
69623;SDS011;56843;52.020;5.670;2022-10-22T09:31:50;9.40;;;2.22;;
69623;SDS011;56843;52.020;5.670;2022-10-22T09:33:25;14.52;;;2.70;;
69623;SDS011;56843;52.020;5.670;2022-10-22T09:34:57;13.35;;;2.10;;
69623;SDS011;56843;52.020;5.670;2022-10-22T09:36:28;7.57;;;1.48;;
69623;SDS011;56843;52.020;5.670;2022-10-22T09:38:05;9.27;;;1.95;;
69623;SDS011;56843;52.020;5.670;2022-10-22T09:39:38;10.85;;;2.42;;
69623;SDS011;56843;52.020;5.670;2022-10-22T09:41:22;7.87;;;1.77;;
69623;SDS011;56843;52.020;5.670;2022-10-22T09:42:55;7.33;;;2.03;;
69623;SDS011;56843;52.020;5.670;2022-10-22T09:44:25;12.32;;;1.65;;
69623;SDS011;56843;52.020;5.670;2022-10-22T09:46:03;5.53;;;1.57;;
69623;SDS011;56843;52.020;5.670;2022-10-22T09:47:39;13.02;;;2.22;;
69623;SDS011;56843;52.020;5.670;2022-10-22T09:49:32;13.82;;;1.80;;
69623;SDS011;56843;52.020;5.670;2022-10-22T09:51:10;8.35;;;2.00;;
69623;SDS011;56843;52.020;5.670;2022-10-22T09:54:48;7.65;;;1.98;;
69623;SDS011;56843;52.020;5.670;2022-10-22T10:04:21;10.10;;;2.25;;
69623;SDS011;56843;52.020;5.670;2022-10-22T10:05:53;10.23;;;1.70;;